createdAt,value
2017-05-04T00:00:53.873Z,71.40
2017-05-04T00:06:14.980Z,71.20
2017-05-04T00:08:44.134Z,71.00
2017-05-04T00:11:13.299Z,71.30
2017-05-04T00:13:42.484Z,71.30
2017-05-04T00:16:11.644Z,71.30
2017-05-04T00:18:40.801Z,71.20
2017-05-04T00:21:09.979Z,71.50
2017-05-04T00:23:38.367Z,71.40
2017-05-04T00:26:07.528Z,71.50
2017-05-04T00:28:35.945Z,72.10
2017-05-04T00:31:05.104Z,71.50
2017-05-04T00:33:33.507Z,71.50
2017-05-04T00:36:02.687Z,70.80
2017-05-04T00:38:31.840Z,70.80
2017-05-04T00:41:00.995Z,70.10
2017-05-04T00:43:30.178Z,70.50
2017-05-04T00:45:59.337Z,70.90
2017-05-04T00:48:27.727Z,70.80
2017-05-04T00:50:56.131Z,70.80
2017-05-04T00:53:24.523Z,70.50
2017-05-04T00:55:53.689Z,70.00
2017-05-04T00:58:22.881Z,70.00
2017-05-04T01:00:51.273Z,69.80
2017-05-04T01:03:20.424Z,70.70
2017-05-04T01:05:48.847Z,70.70
2017-05-04T01:08:18.003Z,71.10
2017-05-04T01:10:47.161Z,73.20
2017-05-04T01:13:16.347Z,71.60
2017-05-04T01:15:44.735Z,71.60
2017-05-04T01:18:13.896Z,73.30
2017-05-04T01:20:43.080Z,72.50
2017-05-04T01:23:12.227Z,72.90
2017-05-04T01:25:40.616Z,72.90
2017-05-04T01:28:09.796Z,72.90
2017-05-04T01:30:37.845Z,72.80
2017-05-04T01:33:06.995Z,72.30
2017-05-04T01:35:36.172Z,72.90
2017-05-04T01:38:05.330Z,72.00
2017-05-04T01:40:34.486Z,72.70
2017-05-04T01:43:04.560Z,71.70
2017-05-04T01:45:33.706Z,71.70
2017-05-04T01:48:02.860Z,72.00
2017-05-04T01:50:32.039Z,72.10
2017-05-04T01:53:00.432Z,72.00
2017-05-04T01:55:29.587Z,71.90
2017-05-04T01:57:58.769Z,71.90
2017-05-04T02:00:27.164Z,71.90
2017-05-04T02:02:56.319Z,72.20
2017-05-04T02:05:25.501Z,72.10
2017-05-04T02:07:54.652Z,72.50
2017-05-04T02:10:23.804Z,72.10
2017-05-04T02:12:53.349Z,71.80
2017-05-04T02:15:22.507Z,71.60
2017-05-04T02:17:50.896Z,72.40
2017-05-04T02:20:20.089Z,71.60
2017-05-04T02:22:48.475Z,71.60
2017-05-04T02:25:17.628Z,71.70
2017-05-04T02:27:46.807Z,71.40
2017-05-04T02:30:15.198Z,71.30
2017-05-04T02:32:43.579Z,71.40
2017-05-04T02:35:12.772Z,71.90
2017-05-04T02:37:41.914Z,72.40
2017-05-04T02:40:11.068Z,71.70
2017-05-04T02:42:40.344Z,71.80
2017-05-04T02:45:09.496Z,72.40
2017-05-04T02:47:38.653Z,72.20
2017-05-04T02:50:07.814Z,72.50
2017-05-04T02:52:37.195Z,71.90
2017-05-04T02:55:06.349Z,73.10
2017-05-04T02:57:35.523Z,74.00
2017-05-04T03:00:04.670Z,73.30
2017-05-04T03:02:33.822Z,73.40
2017-05-04T03:05:02.244Z,73.20
2017-05-04T03:07:31.399Z,73.10
2017-05-04T03:10:00.542Z,73.90
2017-05-04T03:12:29.735Z,73.90
2017-05-04T03:14:58.889Z,74.40
2017-05-04T03:17:28.039Z,74.00
2017-05-04T03:19:57.228Z,74.40
2017-05-04T03:22:26.370Z,74.50
2017-05-04T03:24:54.757Z,74.50
2017-05-04T03:27:23.940Z,75.20
2017-05-04T03:29:53.103Z,75.40
2017-05-04T03:32:22.942Z,75.60
2017-05-04T03:34:51.394Z,75.50
2017-05-04T03:37:20.552Z,76.30
2017-05-04T03:39:49.705Z,77.10
2017-05-04T03:42:18.875Z,77.30
2017-05-04T03:44:47.264Z,77.20
2017-05-04T03:47:16.416Z,77.70
2017-05-04T03:49:45.595Z,78.00
2017-05-04T03:52:14.743Z,78.20
2017-05-04T03:54:43.896Z,77.90
2017-05-04T03:57:13.067Z,78.20
2017-05-04T03:59:42.231Z,78.40
2017-05-04T04:02:11.397Z,78.60
2017-05-04T04:04:39.817Z,78.60
2017-05-04T04:07:08.985Z,78.80
2017-05-04T04:09:38.147Z,79.10
2017-05-04T04:12:07.353Z,78.30
2017-05-04T04:14:36.510Z,78.20
2017-05-04T04:17:05.320Z,78.10
2017-05-04T04:19:34.512Z,78.10
2017-05-04T04:22:03.663Z,77.80
2017-05-04T04:24:32.824Z,79.20
2017-05-04T04:27:02.034Z,78.80
2017-05-04T04:29:31.187Z,78.30
2017-05-04T04:31:59.573Z,78.20
2017-05-04T04:34:28.760Z,77.20
2017-05-04T04:36:57.929Z,77.40
2017-05-04T04:39:27.088Z,77.30
2017-05-04T04:41:56.269Z,76.00
2017-05-04T04:44:25.434Z,76.20
2017-05-04T04:46:54.670Z,76.50
2017-05-04T04:49:23.098Z,76.50
2017-05-04T04:51:52.252Z,76.10
2017-05-04T04:54:20.640Z,76.00
2017-05-04T04:56:49.057Z,75.90
2017-05-04T04:59:17.451Z,74.40
2017-05-04T05:01:46.615Z,75.20
2017-05-04T05:04:15.801Z,75.30
2017-05-04T05:06:44.197Z,75.20
2017-05-04T05:09:12.588Z,71.90
2017-05-04T05:11:41.790Z,68.40
2017-05-04T05:14:10.960Z,67.50
2017-05-04T05:16:40.119Z,64.90
2017-05-04T05:19:08.544Z,64.90
2017-05-04T05:21:37.708Z,59.50
2017-05-04T05:24:06.876Z,59.40
2017-05-04T05:26:35.297Z,59.40
2017-05-04T05:29:03.687Z,58.00
2017-05-04T05:31:32.853Z,56.00
2017-05-04T05:34:03.025Z,57.20
2017-05-04T05:36:32.223Z,57.10
2017-05-04T05:39:01.397Z,58.00
2017-05-04T05:41:30.599Z,58.90
2017-05-04T05:43:59.763Z,59.50
2017-05-04T05:46:28.164Z,59.40
2017-05-04T05:48:56.594Z,59.20
2017-05-04T05:51:24.997Z,60.60
2017-05-04T05:53:53.388Z,61.90
2017-05-04T05:56:22.583Z,59.70
2017-05-04T05:58:51.750Z,60.20
2017-05-04T06:01:20.917Z,64.10
2017-05-04T06:03:50.104Z,67.20
2017-05-04T06:06:19.277Z,70.90
2017-05-04T06:08:48.439Z,71.20
2017-05-04T06:11:17.623Z,71.40
2017-05-04T06:13:46.014Z,71.30
2017-05-04T06:16:15.176Z,70.90
2017-05-04T06:18:43.600Z,70.80
2017-05-04T06:21:12.756Z,70.10
2017-05-04T06:23:41.156Z,70.00
2017-05-04T06:26:10.356Z,69.80
2017-05-04T06:28:39.515Z,69.90
2017-05-04T06:31:08.682Z,69.90
2017-05-04T06:33:37.881Z,71.10
2017-05-04T06:36:06.100Z,71.00
2017-05-04T06:38:35.290Z,70.00
2017-05-04T06:41:04.470Z,70.20
2017-05-04T06:43:33.645Z,70.90
2017-05-04T06:46:02.048Z,70.90
2017-05-04T06:48:31.254Z,71.70
2017-05-04T06:50:59.657Z,71.60
2017-05-04T06:53:28.821Z,70.00
2017-05-04T06:55:58.020Z,69.60
2017-05-04T06:58:27.184Z,69.90
2017-05-04T07:00:56.338Z,69.20
2017-05-04T07:03:25.523Z,68.10
2017-05-04T07:05:54.683Z,70.10
2017-05-04T07:08:23.842Z,69.30
2017-05-04T07:10:53.023Z,68.90
2017-05-04T07:13:22.182Z,68.50
2017-05-04T07:15:51.336Z,68.90
2017-05-04T07:18:20.523Z,68.30
2017-05-04T07:20:49.684Z,68.50
2017-05-04T07:23:18.077Z,68.50
2017-05-04T07:25:47.260Z,68.40
2017-05-04T07:28:16.419Z,68.80
2017-05-04T07:30:45.584Z,67.30
2017-05-04T07:33:14.000Z,67.30
2017-05-04T07:35:43.155Z,66.60
2017-05-04T07:38:12.314Z,66.90
2017-05-04T07:40:41.508Z,67.50
2017-05-04T07:43:09.900Z,67.50
2017-05-04T07:45:39.068Z,65.50
2017-05-04T07:48:07.488Z,65.40
2017-05-04T07:50:36.648Z,65.40
2017-05-04T07:53:05.051Z,65.30
2017-05-04T07:55:34.252Z,64.90
2017-05-04T07:58:03.411Z,65.20
2017-05-04T08:00:32.572Z,65.30
2017-05-04T08:03:01.011Z,65.80
2017-05-04T08:05:29.401Z,66.20
2017-05-04T08:07:58.564Z,66.30
2017-05-04T08:10:27.766Z,60.50
2017-05-04T08:12:56.193Z,60.60
2017-05-04T08:15:25.181Z,58.50
2017-05-04T08:17:54.360Z,60.60
2017-05-04T08:20:23.524Z,60.90
2017-05-04T08:22:51.916Z,60.80
2017-05-04T08:25:21.113Z,63.90
2017-05-04T08:27:50.277Z,64.40
2017-05-04T08:30:18.676Z,64.30
2017-05-04T08:32:47.863Z,63.70
2017-05-04T08:35:17.039Z,63.70
2017-05-04T08:37:46.204Z,64.50
2017-05-04T08:40:15.394Z,64.80
2017-05-04T08:42:44.560Z,63.60
2017-05-04T08:45:13.725Z,63.90
2017-05-04T08:47:42.923Z,64.00
2017-05-04T08:50:12.086Z,64.20
2017-05-04T08:52:41.253Z,64.10
2017-05-04T08:55:10.452Z,64.50
2017-05-04T08:57:39.616Z,64.20
2017-05-04T09:00:08.013Z,64.10
2017-05-04T09:02:37.208Z,62.60
2017-05-04T09:05:06.369Z,62.90
2017-05-04T09:07:34.760Z,63.00
2017-05-04T09:10:03.179Z,61.70
2017-05-04T09:12:32.340Z,62.20
2017-05-04T09:15:01.501Z,63.00
2017-05-04T09:17:30.693Z,61.90
2017-05-04T09:19:59.863Z,63.70
2017-05-04T09:22:29.033Z,61.40
2017-05-04T09:24:58.223Z,61.40
2017-05-04T09:27:26.620Z,61.30
2017-05-04T09:29:55.783Z,65.60
2017-05-04T09:32:24.975Z,65.60
2017-05-04T09:34:54.153Z,65.60
2017-05-04T09:37:23.324Z,66.20
2017-05-04T09:39:52.515Z,67.40
2017-05-04T09:42:20.909Z,67.40
2017-05-04T09:44:50.061Z,70.20
2017-05-04T09:47:18.488Z,70.20
2017-05-04T09:49:46.876Z,70.60
2017-05-04T09:52:16.045Z,72.00
2017-05-04T09:54:45.257Z,72.50
2017-05-04T09:57:13.668Z,72.50
2017-05-04T09:59:42.831Z,72.10
2017-05-04T10:02:11.276Z,71.90
2017-05-04T10:04:41.333Z,72.60
2017-05-04T10:07:10.559Z,73.90
2017-05-04T10:09:38.983Z,73.80
2017-05-04T10:12:07.379Z,73.40
2017-05-04T10:14:36.548Z,74.60
2017-05-04T10:17:05.741Z,74.30
2017-05-04T10:19:34.903Z,74.60
2017-05-04T10:22:04.073Z,75.10
2017-05-04T10:24:33.262Z,76.30
2017-05-04T10:27:02.424Z,76.80
2017-05-04T10:29:31.596Z,76.10
2017-05-04T10:32:01.776Z,76.30
2017-05-04T10:34:30.177Z,76.30
2017-05-04T10:36:59.336Z,77.70
2017-05-04T10:39:28.547Z,77.50
2017-05-04T10:41:57.699Z,78.20
2017-05-04T10:44:26.864Z,78.50
2017-05-04T10:46:56.056Z,78.60
2017-05-04T10:49:25.234Z,78.20
2017-05-04T10:51:54.388Z,77.90
2017-05-04T10:54:24.552Z,80.00
2017-05-04T10:56:53.705Z,80.40
2017-05-04T10:59:22.880Z,81.20
2017-05-04T11:01:52.040Z,80.60
2017-05-04T11:04:21.205Z,80.80
2017-05-04T11:06:50.367Z,80.80
2017-05-04T11:09:19.534Z,80.90
2017-05-04T11:11:48.686Z,81.50
2017-05-04T11:14:17.874Z,81.80
2017-05-04T11:16:46.276Z,81.70
2017-05-04T11:19:15.447Z,79.80
2017-05-04T11:21:44.639Z,79.90
2017-05-04T11:24:13.795Z,80.20
2017-05-04T11:26:42.192Z,80.20
2017-05-04T11:29:11.031Z,83.70
2017-05-04T11:31:40.196Z,84.00
2017-05-04T11:34:09.348Z,85.50
2017-05-04T11:36:38.535Z,84.90
2017-05-04T11:39:07.685Z,84.60
2017-05-04T11:41:36.845Z,84.70
2017-05-04T11:44:06.023Z,85.00
2017-05-04T11:46:35.180Z,85.20
2017-05-04T11:49:04.327Z,85.40
2017-05-04T11:51:33.507Z,84.50
2017-05-04T11:54:02.673Z,84.10
2017-05-04T11:56:31.839Z,84.60
2017-05-04T11:59:01.020Z,84.90
2017-05-04T12:01:30.171Z,84.80
2017-05-04T12:03:59.331Z,84.90
2017-05-04T12:06:27.759Z,84.90
2017-05-04T12:08:56.152Z,86.20
2017-05-04T12:11:25.316Z,89.10
2017-05-04T12:13:53.731Z,89.10
2017-05-04T12:16:22.911Z,90.70
2017-05-04T12:18:52.064Z,91.10
2017-05-04T12:21:21.261Z,91.50
2017-05-04T12:23:50.344Z,91.50
2017-05-04T12:26:19.545Z,91.70
2017-05-04T12:28:48.735Z,92.00
2017-05-04T12:31:17.877Z,92.20
2017-05-04T12:33:47.023Z,93.00
2017-05-04T12:36:16.215Z,92.90
2017-05-04T12:38:45.389Z,92.70
2017-05-04T12:41:14.576Z,92.60
2017-05-04T12:43:43.788Z,92.60
2017-05-04T12:46:12.950Z,92.10
2017-05-04T12:48:42.110Z,92.10
2017-05-04T12:51:11.310Z,92.40
2017-05-04T12:53:40.485Z,92.50
2017-05-04T12:56:09.636Z,92.00
2017-05-04T12:58:38.065Z,91.90
2017-05-04T13:01:07.241Z,92.10
2017-05-04T13:03:36.404Z,91.70
2017-05-04T13:06:05.609Z,90.90
2017-05-04T13:08:34.781Z,91.20
2017-05-04T13:11:03.936Z,90.70
2017-05-04T13:13:33.138Z,90.70
2017-05-04T13:16:02.303Z,89.00
2017-05-04T13:18:31.459Z,88.70
2017-05-04T13:21:00.644Z,87.40
2017-05-04T13:23:29.799Z,86.30
2017-05-04T13:25:58.963Z,85.70
2017-05-04T13:28:28.344Z,85.70
2017-05-04T13:30:57.506Z,84.60
2017-05-04T13:33:25.894Z,84.40
2017-05-04T13:35:54.132Z,84.60
2017-05-04T13:38:22.534Z,83.50
2017-05-04T13:40:51.695Z,83.40
2017-05-04T13:43:20.119Z,83.40
2017-05-04T13:45:49.272Z,83.70
2017-05-04T13:48:18.423Z,83.40
2017-05-04T13:50:47.622Z,83.60
2017-05-04T13:53:16.787Z,83.60
2017-05-04T13:55:45.965Z,84.10
2017-05-04T13:58:15.150Z,83.90
2017-05-04T14:00:43.559Z,83.90
2017-05-04T14:03:13.089Z,84.50
2017-05-04T14:05:42.956Z,83.60
2017-05-04T14:08:12.122Z,82.80
2017-05-04T14:10:40.511Z,82.80
2017-05-04T14:13:09.725Z,83.70
2017-05-04T14:15:38.880Z,84.60
2017-05-04T14:18:08.036Z,83.90
2017-05-04T14:20:36.469Z,83.80
2017-05-04T14:23:04.867Z,83.90
2017-05-04T14:25:33.262Z,84.00
2017-05-04T14:28:02.498Z,84.20
2017-05-04T14:30:31.652Z,84.00
2017-05-04T14:33:01.558Z,84.70
2017-05-04T14:35:30.020Z,84.70
2017-05-04T14:37:59.193Z,83.90
2017-05-04T14:40:28.365Z,83.10
2017-05-04T14:42:57.567Z,83.20
2017-05-04T14:45:26.750Z,83.10
2017-05-04T14:47:55.909Z,83.20
2017-05-04T14:50:25.113Z,83.80
2017-05-04T14:52:54.284Z,83.50
2017-05-04T14:55:23.445Z,84.50
2017-05-04T14:57:52.647Z,84.00
2017-05-04T15:00:21.811Z,83.40
2017-05-04T15:02:50.224Z,83.40
2017-05-04T15:05:19.417Z,85.00
2017-05-04T15:07:48.823Z,86.20
2017-05-04T15:10:17.999Z,86.20
2017-05-04T15:12:47.200Z,86.30
2017-05-04T15:15:16.380Z,86.50
2017-05-04T15:17:45.556Z,87.30
2017-05-04T15:20:14.920Z,88.70
2017-05-04T15:22:44.083Z,88.80
2017-05-04T15:25:12.501Z,88.70
2017-05-04T15:27:41.695Z,90.80
2017-05-04T15:30:10.864Z,91.10
2017-05-04T15:32:40.027Z,91.60
2017-05-04T15:35:09.215Z,91.70
2017-05-04T15:37:38.380Z,91.00
2017-05-04T15:40:07.551Z,91.40
2017-05-04T15:42:36.746Z,91.60
2017-05-04T15:45:05.899Z,92.10
2017-05-04T15:47:35.064Z,92.10
2017-05-04T15:50:04.253Z,92.00
2017-05-04T15:52:33.415Z,92.00
2017-05-04T15:55:02.579Z,92.10
2017-05-04T15:57:31.764Z,92.60
2017-05-04T16:00:00.959Z,92.20
2017-05-04T16:02:30.131Z,92.20
2017-05-04T16:04:58.982Z,92.30
2017-05-04T16:07:28.157Z,92.30
2017-05-04T16:09:57.315Z,92.20
2017-05-04T16:12:26.507Z,92.10
2017-05-04T16:14:55.332Z,92.30
2017-05-04T16:17:24.492Z,92.50
2017-05-04T16:19:53.675Z,92.60
2017-05-04T16:22:22.841Z,92.50
2017-05-04T16:24:52.003Z,92.40
2017-05-04T16:27:21.193Z,92.90
2017-05-04T16:29:49.590Z,92.90
2017-05-04T16:32:18.769Z,92.70
2017-05-04T16:34:47.963Z,92.40
2017-05-04T16:37:17.124Z,92.90
2017-05-04T16:39:46.280Z,93.10
2017-05-04T16:42:15.464Z,92.80
2017-05-04T16:44:44.625Z,92.60
2017-05-04T16:47:13.776Z,92.20
2017-05-04T16:49:42.199Z,92.20
2017-05-04T16:52:12.036Z,92.60
2017-05-04T16:54:41.183Z,92.80
2017-05-04T16:57:10.372Z,93.10
2017-05-04T16:59:39.529Z,92.90
2017-05-04T17:02:08.687Z,93.10
2017-05-04T17:04:37.104Z,93.10
2017-05-04T17:07:06.256Z,93.30
2017-05-04T17:09:35.407Z,93.20
2017-05-04T17:12:04.610Z,93.00
2017-05-04T17:14:33.769Z,93.00
2017-05-04T17:17:02.930Z,92.90
2017-05-04T17:19:32.112Z,93.10
2017-05-04T17:22:01.268Z,93.10
2017-05-04T17:24:29.655Z,93.10
2017-05-04T17:26:58.843Z,92.90
2017-05-04T17:29:27.047Z,92.90
2017-05-04T17:31:55.451Z,93.10
2017-05-04T17:34:24.631Z,93.10
2017-05-04T17:36:53.792Z,93.10
2017-05-04T17:39:22.184Z,93.10
2017-05-04T17:41:51.364Z,93.40
2017-05-04T17:44:20.514Z,93.20
2017-05-04T17:46:49.671Z,93.50
2017-05-04T17:49:18.863Z,93.60
2017-05-04T17:51:48.019Z,93.60
2017-05-04T17:54:17.398Z,93.30
2017-05-04T17:56:46.231Z,93.70
2017-05-04T17:59:15.379Z,93.40
2017-05-04T18:01:44.541Z,93.30
2017-05-04T18:04:13.729Z,93.60
2017-05-04T18:06:42.903Z,93.80
2017-05-04T18:09:12.063Z,94.10
2017-05-04T18:11:41.256Z,93.60
2017-05-04T18:14:10.420Z,93.40
2017-05-04T18:16:39.591Z,94.10
2017-05-04T18:19:08.789Z,93.70
2017-05-04T18:21:37.952Z,93.60
2017-05-04T18:24:07.446Z,93.60
2017-05-04T18:26:36.683Z,93.60
2017-05-04T18:29:05.848Z,93.50
2017-05-04T18:31:35.034Z,93.70
2017-05-04T18:34:04.036Z,94.00
2017-05-04T18:36:34.451Z,93.70
2017-05-04T18:39:03.612Z,93.80
2017-05-04T18:41:32.790Z,93.90
2017-05-04T18:44:01.959Z,93.90
2017-05-04T18:46:31.117Z,94.00
2017-05-04T18:49:00.297Z,94.00
2017-05-04T18:51:29.447Z,93.70
2017-05-04T18:53:58.598Z,93.60
2017-05-04T18:56:27.778Z,93.70
2017-05-04T18:58:56.926Z,93.80
2017-05-04T19:01:26.084Z,94.10
2017-05-04T19:03:55.268Z,94.10
2017-05-04T19:06:24.423Z,93.90
2017-05-04T19:08:53.574Z,94.10
2017-05-04T19:11:22.756Z,94.10
2017-05-04T19:13:51.911Z,94.20
2017-05-04T19:16:20.299Z,94.10
2017-05-04T19:18:49.484Z,94.10
2017-05-04T19:21:18.909Z,94.50
2017-05-04T19:23:48.063Z,94.50
2017-05-04T19:26:17.242Z,94.60
2017-05-04T19:28:46.390Z,94.60
2017-05-04T19:31:15.552Z,94.50
2017-05-04T19:33:44.727Z,94.50
2017-05-04T19:36:13.879Z,94.40
2017-05-04T19:38:43.026Z,94.70
2017-05-04T19:41:12.216Z,94.80
2017-05-04T19:43:41.372Z,94.70
2017-05-04T19:46:10.533Z,94.70
2017-05-04T19:48:39.735Z,94.70
2017-05-04T19:53:38.067Z,95.00
2017-05-04T19:56:06.161Z,94.90
2017-05-04T19:58:35.324Z,94.80
2017-05-04T20:01:04.306Z,95.00
2017-05-04T20:03:33.491Z,95.00
2017-05-04T20:06:02.665Z,95.00
2017-05-04T20:08:31.818Z,94.90
2017-05-04T20:11:01.002Z,94.80
2017-05-04T20:13:30.156Z,94.90
2017-05-04T20:15:59.218Z,94.70
2017-05-04T20:18:28.412Z,94.70
2017-05-04T20:20:57.571Z,94.70
2017-05-04T20:23:26.727Z,94.70
2017-05-04T20:25:56.067Z,94.50
2017-05-04T20:28:25.218Z,94.30
2017-05-04T20:30:54.055Z,94.30
2017-05-04T20:33:23.243Z,94.40
2017-05-04T20:35:51.637Z,94.40
2017-05-04T20:41:12.141Z,94.50
2017-05-04T20:43:41.374Z,94.40
2017-05-04T20:46:10.544Z,94.40
2017-05-04T20:48:39.720Z,94.50
2017-05-04T20:51:08.893Z,94.40
2017-05-04T20:53:38.078Z,94.30
2017-05-04T20:56:07.248Z,94.40
2017-05-04T21:01:34.132Z,94.40
2017-05-04T21:04:03.318Z,94.60
2017-05-04T21:06:32.538Z,94.50
2017-05-04T21:09:01.721Z,94.60
2017-05-04T21:11:30.899Z,94.60
2017-05-04T21:14:00.085Z,94.70
2017-05-04T21:16:29.310Z,94.60
2017-05-04T21:18:58.489Z,94.90
2017-05-04T21:21:27.716Z,94.80
2017-05-04T21:23:56.929Z,94.60
2017-05-04T21:26:26.114Z,94.80
2017-05-04T21:28:55.298Z,94.70
2017-05-04T21:31:24.510Z,94.90
2017-05-04T21:33:53.699Z,95.00
2017-05-04T21:36:22.924Z,95.00
2017-05-04T21:38:52.173Z,94.90
2017-05-04T21:41:21.362Z,95.00
2017-05-04T21:43:50.596Z,95.10
2017-05-04T21:46:19.801Z,95.20
2017-05-04T21:48:48.990Z,95.10
2017-05-04T21:51:18.168Z,95.10
2017-05-04T21:53:47.378Z,95.20
2017-05-04T21:56:16.561Z,95.10
2017-05-04T21:58:45.733Z,95.40
2017-05-04T22:01:14.947Z,95.40
2017-05-04T22:03:44.133Z,95.30
2017-05-04T22:06:13.306Z,95.30
2017-05-04T22:08:42.554Z,95.40
2017-05-04T22:11:11.766Z,95.50
2017-05-04T22:13:40.950Z,95.40
2017-05-04T22:16:10.161Z,95.70
2017-05-04T22:18:39.347Z,95.80
2017-05-04T22:21:08.516Z,95.80
2017-05-04T22:23:37.717Z,95.80
2017-05-04T22:26:06.900Z,95.70
2017-05-04T22:28:36.073Z,95.80
2017-05-04T22:31:05.972Z,95.90
2017-05-04T22:33:35.150Z,96.00
2017-05-04T22:36:04.324Z,96.00
2017-05-04T22:38:33.539Z,95.90
2017-05-04T22:41:02.717Z,95.80
2017-05-04T22:43:31.901Z,95.80
2017-05-04T22:46:01.121Z,95.80
2017-05-04T22:48:30.306Z,95.90
2017-05-04T22:50:59.477Z,96.00
2017-05-04T22:53:28.691Z,96.00
2017-05-04T22:55:57.870Z,95.90
2017-05-04T22:58:26.287Z,95.90
2017-05-04T23:00:55.495Z,95.90
2017-05-04T23:03:24.670Z,95.90
2017-05-04T23:05:53.861Z,95.80
2017-05-04T23:08:23.744Z,95.80
2017-05-04T23:10:52.925Z,95.90
2017-05-04T23:13:22.105Z,96.00
2017-05-04T23:15:51.308Z,96.00
2017-05-04T23:18:20.493Z,96.10
2017-05-04T23:20:49.668Z,96.00
2017-05-04T23:23:18.109Z,96.00
2017-05-04T23:25:46.525Z,95.90
2017-05-04T23:28:15.707Z,95.90
2017-05-04T23:30:44.913Z,96.10
2017-05-04T23:33:14.095Z,96.00
2017-05-04T23:35:43.279Z,96.00
2017-05-04T23:38:12.488Z,96.00
2017-05-04T23:40:40.901Z,96.00
2017-05-04T23:43:10.079Z,96.20
2017-05-04T23:45:39.294Z,96.10
2017-05-04T23:48:08.465Z,96.00
2017-05-04T23:50:37.633Z,96.20
2017-05-04T23:53:06.835Z,96.00
2017-05-04T23:55:36.017Z,96.30
2017-05-04T23:58:05.203Z,96.20
